Time;durP1;ratioP1;P1;durP2;ratioP2;P2;SDS_P1;SDS_P2;PMS_P1;PMS_P2;Temp;Humidity;BMP_temperature;BMP_pressure;BME280_temperature;BME280_humidity;BME280_pressure;Samples;Min_cycle;Max_cycle;Signal;HPM_P1;HPM_P2
2022/04/19 00:00:32;;;;;;;2.20;2.00;;;;;;;13.42;47.81;96188.53;4846682;29;20245;-88
2022/04/19 00:03:00;;;;;;;2.60;2.40;;;;;;;17.77;47.71;96908.81;4853331;29;20270;-88
2022/04/19 00:05:27;;;;;;;2.63;2.43;;;;;;;14.81;47.59;96419.63;4881098;29;20289;-88
2022/04/19 00:07:53;;;;;;;2.73;2.40;;;;;;;19.26;47.79;97160.69;4861626;29;20618;-88
2022/04/19 00:10:20;;;;;;;4.33;2.50;;;;;;;19.26;47.73;97158.13;4876326;29;20234;-88
2022/04/19 00:12:50;;;;;;;2.80;2.40;;;;;;;16.83;47.63;96734.50;4861670;29;20599;-88
2022/04/19 00:15:17;;;;;;;2.67;2.40;;;;;;;9.92;47.67;95568.41;4866154;29;20203;-87
2022/04/19 00:17:43;;;;;;;2.33;2.13;;;;;;;9.86;47.70;95533.03;4858746;29;20590;-88
2022/04/19 00:20:10;;;;;;;2.30;2.10;;;;;;;13.00;47.38;96110.28;4858749;29;20307;-85
2022/04/19 00:22:38;;;;;;;2.30;2.10;;;;;;;14.75;47.63;96373.03;4858920;29;20221;-88
2022/04/19 00:25:06;;;;;;;3.93;2.40;;;;;;;14.98;47.59;96470.84;4862565;29;20245;-89
2022/04/19 00:27:34;;;;;;;2.90;2.60;;;;;;;15.28;47.52;96445.00;4860465;29;20211;-88
2022/04/19 00:30:02;;;;;;;2.10;2.00;;;;;;;10.82;47.29;95685.25;4859260;29;20330;-88
2022/04/19 00:32:29;;;;;;;2.47;2.23;;;;;;;17.42;47.72;96815.25;4860431;29;20569;-88
2022/04/19 00:34:57;;;;;;;2.23;2.13;;;;;;;18.27;47.64;96976.63;4846245;29;20198;-88
2022/04/19 00:37:24;;;;;;;2.50;2.30;;;;;;;19.26;47.76;97132.66;4851025;29;20215;-88
2022/04/19 00:39:50;;;;;;;2.80;2.60;;;;;;;16.29;47.77;96628.56;4875367;29;20234;-88
2022/04/19 00:42:17;;;;;;;2.33;2.13;;;;;;;12.24;47.49;95988.78;4843591;29;20203;-88
2022/04/19 00:44:47;;;;;;;2.80;2.60;;;;;;;16.97;47.45;96795.91;4858850;29;20227;-88
2022/04/19 00:47:15;;;;;;;2.33;2.13;;;;;;;12.61;47.28;96042.34;4886028;29;20210;-88
2022/04/19 00:49:42;;;;;;;2.37;2.17;;;;;;;17.75;47.53;96862.16;4844122;29;20245;-88
2022/04/19 00:52:09;;;;;;;2.53;2.30;;;;;;;16.18;47.46;96634.91;4876481;29;20774;-88
2022/04/19 00:54:36;;;;;;;2.97;2.40;;;;;;;12.11;47.41;95958.00;4861079;29;20233;-88
2022/04/19 00:57:05;;;;;;;2.40;2.20;;;;;;;18.13;47.62;96936.34;4861835;29;20209;-87
2022/04/19 00:59:33;;;;;;;2.50;2.30;;;;;;;12.26;47.13;95938.47;4857472;29;20318;-88
2022/04/19 01:02:02;;;;;;;2.97;2.50;;;;;;;15.40;46.88;96469.94;4859591;29;20676;-87
2022/04/19 01:04:29;;;;;;;2.53;2.10;;;;;;;12.00;47.46;95893.78;4890121;29;20620;-88
2022/04/19 01:06:57;;;;;;;2.53;2.30;;;;;;;10.84;47.15;95712.94;4869004;29;20215;-88
2022/04/19 01:09:24;;;;;;;2.27;2.13;;;;;;;13.98;47.85;96269.81;4842865;29;20231;-88
2022/04/19 01:14:37;;;;;;;2.47;2.20;;;;;;;18.32;47.50;96925.06;4871124;29;20223;-87
2022/04/19 01:17:07;;;;;;;3.10;2.40;;;;;;;19.27;47.49;97088.59;4877301;29;20263;-88
2022/04/19 01:19:39;;;;;;;2.80;2.60;;;;;;;17.07;47.40;96777.63;4880701;29;20240;-88
2022/04/19 01:22:06;;;;;;;2.83;2.50;;;;;;;12.55;46.76;96048.78;4867885;29;20242;-88
2022/04/19 01:24:33;;;;;;;3.07;2.67;;;;;;;16.61;47.35;96647.47;4842028;29;20239;-88
2022/04/19 01:26:59;;;;;;;2.73;2.40;;;;;;;19.25;47.59;97085.97;4851442;29;20258;-89
2022/04/19 01:29:27;;;;;;;2.30;2.10;;;;;;;18.51;47.61;96952.88;4869393;29;20278;-89
2022/04/19 01:31:53;;;;;;;2.50;2.30;;;;;;;17.97;47.72;96892.56;4878862;29;20707;-88
2022/04/19 01:34:20;;;;;;;2.47;2.20;;;;;;;19.22;47.53;97083.28;4842963;29;20242;-88
2022/04/19 01:36:47;;;;;;;2.70;2.50;;;;;;;15.97;47.40;96551.41;4864847;29;20227;-88
2022/04/19 01:39:13;;;;;;;3.47;2.63;;;;;;;19.23;47.35;97079.06;4875030;29;20229;-88
2022/04/19 01:41:40;;;;;;;2.70;2.50;;;;;;;19.24;47.33;97075.69;4888452;29;20206;-87
2022/04/19 01:44:07;;;;;;;2.83;2.53;;;;;;;19.24;47.32;97084.22;4899495;29;20239;-89
2022/04/19 01:46:34;;;;;;;2.70;2.50;;;;;;;16.93;47.23;96682.41;4900009;29;20784;-87
2022/04/19 01:49:04;;;;;;;2.53;2.33;;;;;;;18.08;47.23;96881.94;4867861;29;20673;-87
2022/04/19 01:51:31;;;;;;;3.00;2.80;;;;;;;19.25;47.20;97077.44;4867256;29;20253;-88
2022/04/19 01:53:57;;;;;;;3.27;2.50;;;;;;;19.25;47.22;97075.78;4877015;29;20234;-88
2022/04/19 01:56:24;;;;;;;2.97;2.67;;;;;;;19.25;47.43;97075.78;4864619;29;20294;-88
2022/04/19 02:01:26;;;;;;;2.60;2.40;;;;;;;18.49;47.30;96935.81;4902525;29;20203;-90
2022/04/19 02:03:52;;;;;;;2.50;2.30;;;;;;;18.10;47.15;96869.28;4906956;29;20198;-91
2022/04/19 02:06:20;;;;;;;2.60;2.40;;;;;;;18.80;47.23;96997.06;4906162;29;20247;-90
2022/04/19 02:08:49;;;;;;;2.40;2.20;;;;;;;17.97;47.35;96850.19;4904876;29;20187;-90
2022/04/19 02:11:15;;;;;;;3.20;2.87;;;;;;;18.35;47.25;96917.53;4887131;29;20195;-91
2022/04/19 02:13:42;;;;;;;3.30;2.40;;;;;;;18.93;47.25;97017.00;4870992;29;20930;-90
2022/04/19 02:16:09;;;;;;;2.50;2.30;;;;;;;19.23;47.25;97062.13;4887478;29;20236;-91
2022/04/19 02:18:35;;;;;;;2.50;2.30;;;;;;;18.29;47.16;96909.72;4887096;29;20196;-90
2022/04/19 02:21:02;;;;;;;3.30;2.63;;;;;;;19.16;47.31;97051.69;4886976;29;20211;-90
2022/04/19 02:23:28;;;;;;;2.33;2.13;;;;;;;18.22;47.18;96902.72;4887154;29;20199;-91
2022/04/19 02:25:55;;;;;;;3.57;2.43;;;;;;;18.07;47.37;96867.50;4870882;29;20228;-91
2022/04/19 02:28:22;;;;;;;2.53;2.33;;;;;;;18.11;47.19;96860.81;4887244;29;20184;-90
2022/04/19 02:30:49;;;;;;;2.63;2.43;;;;;;;18.51;47.33;96947.78;4868814;29;20208;-90
2022/04/19 02:33:16;;;;;;;2.50;2.30;;;;;;;18.13;47.08;96857.53;4868449;29;20207;-90
2022/04/19 02:35:43;;;;;;;4.27;2.50;;;;;;;18.76;47.04;96985.03;4884212;29;20188;-91
2022/04/19 02:38:10;;;;;;;2.83;2.53;;;;;;;17.81;47.28;96806.44;4867921;29;20188;-90
2022/04/19 02:40:36;;;;;;;2.80;2.60;;;;;;;17.99;47.20;96829.91;4867916;29;20234;-90
2022/04/19 02:43:03;;;;;;;3.17;2.30;;;;;;;18.40;47.13;96893.16;4883870;29;20192;-90
2022/04/19 02:45:30;;;;;;;3.23;2.90;;;;;;;17.94;46.95;96818.72;4867871;29;20203;-90
2022/04/19 02:48:04;;;;;;;2.47;2.27;;;;;;;18.27;47.40;96895.22;4883915;29;20188;-90
2022/04/19 02:50:41;;;;;;;2.77;2.47;;;;;;;17.93;47.08;96842.44;4867927;29;20242;-90
2022/04/19 02:53:08;;;;;;;2.30;2.10;;;;;;;17.81;47.10;96809.88;4867833;29;20197;-90
2022/04/19 02:55:35;;;;;;;2.53;2.33;;;;;;;17.91;47.08;96827.13;4883198;29;20405;-91
2022/04/19 02:58:02;;;;;;;3.37;2.70;;;;;;;18.79;47.04;96964.78;4883615;29;20183;-91
2022/04/19 03:00:28;;;;;;;2.97;2.67;;;;;;;18.21;47.10;96861.16;4882706;29;20219;-91
2022/04/19 03:02:55;;;;;;;2.70;2.50;;;;;;;18.37;47.18;96881.97;4883102;29;20256;-90
2022/04/19 03:05:22;;;;;;;2.83;2.40;;;;;;;17.37;47.09;96721.13;4864119;29;20207;-90
2022/04/19 03:07:48;;;;;;;2.73;2.30;;;;;;;18.43;47.26;96892.38;4883330;29;20195;-90
2022/04/19 03:10:18;;;;;;;3.23;2.70;;;;;;;18.85;47.18;96963.28;4867635;29;20200;-90
2022/04/19 03:12:45;;;;;;;3.90;2.70;;;;;;;17.70;46.95;96762.91;4883600;29;20188;-90
2022/04/19 03:15:12;;;;;;;2.50;2.30;;;;;;;18.45;47.01;96903.47;4883459;29;20214;-91
2022/04/19 03:17:40;;;;;;;2.40;2.20;;;;;;;18.73;47.01;96942.56;4867266;29;20211;-90
2022/04/19 03:20:11;;;;;;;2.40;2.20;;;;;;;18.78;47.20;96950.34;4883065;29;20265;-91
2022/04/19 03:28:11;;;;;;;2.50;2.30;;;;;;;18.91;46.96;96965.16;4883216;29;20188;-90
2022/04/19 03:30:38;;;;;;;2.50;2.30;;;;;;;17.98;46.96;96838.38;4882012;29;20207;-90
2022/04/19 03:33:05;;;;;;;2.37;2.17;;;;;;;17.66;46.93;96745.84;4867099;29;20184;-91
2022/04/19 03:35:31;;;;;;;2.37;2.10;;;;;;;18.43;46.85;96880.53;4882908;29;20202;-91
2022/04/19 03:37:58;;;;;;;2.73;2.53;;;;;;;18.56;46.97;96905.53;4867031;29;20183;-91
2022/04/19 03:40:25;;;;;;;2.40;2.20;;;;;;;17.92;47.01;96810.22;4866863;29;20207;-90
2022/04/19 03:42:54;;;;;;;2.30;2.10;;;;;;;18.32;46.73;96865.72;4865959;29;20248;-91
2022/04/19 03:45:21;;;;;;;2.30;2.10;;;;;;;18.15;46.90;96838.06;4882602;29;20180;-91
2022/04/19 03:47:49;;;;;;;2.97;2.20;;;;;;;19.15;46.92;96999.00;4863814;29;20188;-91
2022/04/19 03:50:16;;;;;;;3.10;2.30;;;;;;;18.06;46.74;96821.69;4879728;29;20207;-91
2022/04/19 03:52:44;;;;;;;3.10;2.53;;;;;;;18.19;46.88;96860.25;4866661;29;20199;-91
2022/04/19 03:55:11;;;;;;;3.10;2.77;;;;;;;17.72;47.03;96765.50;4866690;29;20192;-91
2022/04/19 03:57:37;;;;;;;2.40;2.20;;;;;;;18.46;46.75;96888.25;4866920;29;20187;-90
2022/04/19 04:00:06;;;;;;;2.67;2.40;;;;;;;18.34;46.88;96870.03;4882106;29;20212;-90
2022/04/19 04:02:36;;;;;;;2.47;2.27;;;;;;;18.36;47.09;96870.97;4850663;29;20194;-90
2022/04/19 04:05:03;;;;;;;3.33;2.50;;;;;;;18.68;47.07;96931.34;4867960;29;20208;-90
2022/04/19 04:07:30;;;;;;;2.60;2.40;;;;;;;18.23;47.04;96873.91;4852393;29;20235;-90
2022/04/19 04:09:56;;;;;;;2.50;2.30;;;;;;;17.63;46.92;96750.81;4882375;29;20207;-90
2022/04/19 04:12:23;;;;;;;2.30;2.10;;;;;;;18.43;46.87;96893.25;4882027;29;20187;-91
2022/04/19 04:14:53;;;;;;;2.50;2.30;;;;;;;17.53;46.97;96736.09;4865318;29;20243;-90
2022/04/19 04:17:20;;;;;;;2.53;2.33;;;;;;;17.85;46.56;96803.19;4863333;29;20185;-91
2022/04/19 04:19:49;;;;;;;2.60;2.40;;;;;;;18.23;47.21;96879.88;4858350;29;20254;-90
2022/04/19 04:22:15;;;;;;;2.70;2.50;;;;;;;19.23;46.99;97031.56;4861743;29;20204;-91
2022/04/19 04:24:42;;;;;;;3.07;2.37;;;;;;;17.85;46.86;96796.44;4856625;29;20207;-91
2022/04/19 04:27:08;;;;;;;2.43;2.23;;;;;;;18.79;46.84;96955.47;4867228;29;20211;-90
2022/04/19 04:29:36;;;;;;;2.90;2.60;;;;;;;18.78;46.76;96952.88;4871104;29;20243;-90
2022/04/19 04:32:04;;;;;;;2.50;2.30;;;;;;;18.43;46.86;96910.19;4872082;29;20194;-91
2022/04/19 04:34:31;;;;;;;2.60;2.40;;;;;;;18.04;46.87;96824.19;4865365;29;20329;-90
2022/04/19 04:36:57;;;;;;;2.10;1.93;;;;;;;17.69;46.72;96761.19;4858086;29;20199;-91
2022/04/19 04:39:24;;;;;;;2.50;2.30;;;;;;;17.93;46.79;96795.00;4880872;29;20218;-90
2022/04/19 04:41:50;;;;;;;2.67;2.47;;;;;;;18.68;46.84;96915.25;4870870;29;20236;-90
2022/04/19 04:44:17;;;;;;;2.67;2.43;;;;;;;18.38;46.74;96874.44;4882421;29;20184;-92
2022/04/19 04:49:35;;;;;;;3.93;2.40;;;;;;;17.46;46.82;96715.50;4853363;29;20203;-91
2022/04/19 04:52:05;;;;;;;2.23;2.07;;;;;;;18.41;46.66;96874.53;4876081;29;20180;-92
2022/04/19 04:54:32;;;;;;;2.50;2.30;;;;;;;18.58;46.89;96919.19;4864842;29;20187;-91
2022/04/19 04:56:58;;;;;;;3.50;2.40;;;;;;;18.76;46.91;96957.91;4864068;29;20194;-92
2022/04/19 04:59:25;;;;;;;2.10;1.90;;;;;;;17.93;46.57;96809.38;4850372;29;20229;-92
2022/04/19 05:01:51;;;;;;;2.10;1.83;;;;;;;18.20;46.98;96859.44;4880730;29;20196;-92
2022/04/19 05:04:18;;;;;;;2.83;1.93;;;;;;;17.92;46.59;96816.13;4857524;29;20247;-91
2022/04/19 05:06:45;;;;;;;1.70;1.60;;;;;;;18.34;46.30;96894.59;4861252;29;20206;-91
2022/04/19 05:09:11;;;;;;;2.20;1.90;;;;;;;18.41;46.15;96904.22;4881930;29;20200;-91
2022/04/19 05:11:39;;;;;;;2.33;1.80;;;;;;;17.96;46.38;96840.84;4881279;29;20238;-92
2022/04/19 05:14:07;;;;;;;2.93;2.50;;;;;;;18.83;45.13;96964.06;4865887;29;20195;-92
2022/04/19 05:16:35;;;;;;;6.27;2.80;;;;;;;17.92;44.18;96825.47;4850540;29;20192;-91
2022/04/19 05:19:03;;;;;;;4.23;3.27;;;;;;;17.81;43.26;96799.69;4881448;29;20195;-92
2022/04/19 05:21:30;;;;;;;4.10;3.17;;;;;;;18.70;42.73;96951.75;4850741;29;20212;-91
2022/04/19 05:23:56;;;;;;;3.50;3.20;;;;;;;17.75;42.62;96791.88;4849940;29;20180;-91
2022/04/19 05:26:28;;;;;;;5.07;3.30;;;;;;;18.07;42.31;96846.28;4881324;29;20204;-92
2022/04/19 05:28:54;;;;;;;4.07;3.23;;;;;;;17.60;42.20;96785.41;4835981;29;20186;-90
2022/04/19 05:31:21;;;;;;;4.40;3.20;;;;;;;18.36;41.63;96888.78;4881198;29;20203;-91
2022/04/19 05:33:48;;;;;;;5.53;3.47;;;;;;;18.10;41.44;96867.59;4881497;29;20187;-91
2022/04/19 05:36:15;;;;;;;3.67;2.90;;;;;;;17.80;41.30;96812.34;4864532;29;20208;-91
2022/04/19 05:38:41;;;;;;;4.23;3.57;;;;;;;18.28;41.32;96897.81;4880807;29;20946;-92
2022/04/19 05:41:08;;;;;;;4.60;3.73;;;;;;;18.37;40.78;96899.78;4865213;29;20188;-92
2022/04/19 05:43:34;;;;;;;5.70;3.87;;;;;;;17.90;41.30;96817.78;4865175;29;20194;-92
2022/04/19 05:46:01;;;;;;;4.50;3.47;;;;;;;18.01;41.35;96862.22;4880321;29;20203;-92
2022/04/19 05:48:27;;;;;;;3.50;3.00;;;;;;;18.65;42.26;96956.72;4865362;29;20180;-91
2022/04/19 05:50:54;;;;;;;5.73;3.37;;;;;;;18.07;42.90;96859.88;4865383;29;20233;-92
2022/04/19 05:53:21;;;;;;;5.43;2.77;;;;;;;19.04;43.20;97026.69;4850809;29;20187;-91
2022/04/19 05:55:48;;;;;;;5.87;2.97;;;;;;;17.13;43.77;96704.22;4834790;29;20188;-93
2022/04/19 05:58:15;;;;;;;4.67;2.97;;;;;;;18.54;44.18;96965.72;4851482;29;20226;-93
2022/04/19 06:00:42;;;;;;;2.93;2.63;;;;;;;18.39;44.16;96926.19;4863014;29;20258;-91
2022/04/19 06:05:54;;;;;;;6.63;3.23;;;;;;;18.87;43.47;96997.31;4881565;29;20203;-92
2022/04/19 06:08:20;;;;;;;5.07;3.33;;;;;;;17.91;41.86;96838.97;4868633;29;20188;-91
2022/04/19 06:10:49;;;;;;;6.70;3.60;;;;;;;18.08;41.58;96860.72;4879973;29;20207;-91
2022/04/19 06:13:16;;;;;;;5.70;3.80;;;;;;;18.23;41.18;96884.09;4870676;29;20191;-91
2022/04/19 06:15:43;;;;;;;8.53;3.37;;;;;;;17.66;42.36;96794.13;4867600;29;20279;-91
2022/04/19 06:18:10;;;;;;;10.23;3.80;;;;;;;17.76;42.21;96829.16;4883166;29;20191;-91
2022/04/19 06:20:36;;;;;;;3.50;3.20;;;;;;;18.07;42.66;96856.47;4876780;29;20200;-91
2022/04/19 06:23:04;;;;;;;5.77;3.17;;;;;;;17.77;43.02;96812.25;4884222;29;20196;-91
2022/04/19 06:25:31;;;;;;;5.00;3.27;;;;;;;18.18;43.10;96911.06;4868667;29;20192;-91
2022/04/19 06:27:57;;;;;;;4.57;3.30;;;;;;;18.07;43.70;96856.47;4884215;29;20208;-91
2022/04/19 06:30:24;;;;;;;7.00;2.87;;;;;;;17.97;43.88;96867.16;4883901;29;20211;-93
2022/04/19 06:32:51;;;;;;;4.20;3.57;;;;;;;18.17;44.07;96881.34;4853062;29;20184;-91
2022/04/19 06:35:18;;;;;;;4.27;3.00;;;;;;;18.61;44.22;96971.84;4868017;29;20191;-91
2022/04/19 06:37:46;;;;;;;3.63;3.20;;;;;;;17.86;44.29;96825.25;4852877;29;20184;-91
2022/04/19 06:40:13;;;;;;;2.93;2.60;;;;;;;17.91;44.50;96850.00;4867782;29;20204;-91
2022/04/19 06:42:40;;;;;;;3.70;3.00;;;;;;;18.36;44.35;96937.09;4868135;29;20192;-91
2022/04/19 06:45:07;;;;;;;3.37;2.97;;;;;;;17.84;44.84;96816.72;4867900;29;20188;-91
2022/04/19 06:47:35;;;;;;;3.53;3.10;;;;;;;18.18;44.90;96883.09;4852737;29;20203;-91
2022/04/19 06:50:02;;;;;;;3.73;2.97;;;;;;;17.80;44.82;96813.19;4883768;29;20481;-91
2022/04/19 06:52:29;;;;;;;4.47;3.03;;;;;;;18.61;44.64;96948.94;4867487;29;20195;-91
2022/04/19 06:54:56;;;;;;;4.23;2.47;;;;;;;18.16;44.56;96890.69;4868002;29;20270;-91
2022/04/19 06:57:23;;;;;;;3.27;2.77;;;;;;;17.79;44.75;96805.53;4852152;29;20180;-92
2022/04/19 06:59:50;;;;;;;3.87;2.90;;;;;;;17.08;44.15;96691.38;4867619;29;20244;-91
2022/04/19 07:02:16;;;;;;;2.67;2.47;;;;;;;17.50;44.61;96753.75;4883365;29;20188;-91
2022/04/19 07:04:43;;;;;;;3.77;2.47;;;;;;;17.75;44.67;96819.81;4877925;29;20211;-92
2022/04/19 07:07:10;;;;;;;3.10;2.70;;;;;;;18.21;44.99;96888.28;4837450;29;20199;-91
2022/04/19 07:09:37;;;;;;;5.73;2.90;;;;;;;17.78;45.28;96822.47;4867352;29;20196;-91
2022/04/19 07:12:04;;;;;;;4.20;2.97;;;;;;;17.96;44.69;96838.31;4867278;29;20211;-91
2022/04/19 07:14:35;;;;;;;2.77;2.47;;;;;;;18.21;44.83;96876.41;4867610;29;20183;-92
2022/04/19 07:17:02;;;;;;;2.80;2.60;;;;;;;18.88;45.19;96987.97;4882913;29;20211;-91
2022/04/19 07:26:37;;;;;;;3.73;2.70;;;;;;;17.76;45.30;96797.81;4883256;29;20393;-91
2022/04/19 07:27:45;;;;;;;2.97;2.67;;;;;;;18.74;44.96;96974.81;4869422;29;20211;-90
2022/04/19 07:30:13;;;;;;;2.97;2.27;;;;;;;18.20;44.96;96876.38;4851529;29;20192;-92
2022/04/19 07:32:40;;;;;;;5.13;2.90;;;;;;;17.62;45.41;96764.31;4882833;29;20195;-91
2022/04/19 07:35:07;;;;;;;4.10;2.87;;;;;;;18.10;45.04;96869.28;4852006;29;20184;-91
2022/04/19 07:37:34;;;;;;;2.97;2.67;;;;;;;18.57;45.06;96945.44;4851957;29;20199;-91
2022/04/19 07:40:00;;;;;;;2.77;2.53;;;;;;;18.27;45.09;96879.97;4866583;29;21523;-91
2022/04/19 07:42:27;;;;;;;2.83;2.43;;;;;;;18.23;45.32;96868.00;4866907;29;20183;-91
2022/04/19 07:44:54;;;;;;;2.53;2.33;;;;;;;17.44;45.08;96745.09;4882680;29;20224;-91
2022/04/19 07:47:20;;;;;;;2.43;2.23;;;;;;;18.16;45.21;96864.38;4882637;29;20203;-91
2022/04/19 07:49:49;;;;;;;2.53;2.33;;;;;;;17.35;45.03;96722.75;4866475;29;20215;-91
2022/04/19 07:52:16;;;;;;;2.87;2.57;;;;;;;18.27;44.93;96880.84;4852009;29;20187;-91
2022/04/19 07:54:43;;;;;;;2.63;2.43;;;;;;;18.07;45.29;96856.47;4866687;29;20217;-91
2022/04/19 07:57:10;;;;;;;2.40;2.20;;;;;;;18.23;45.51;96868.81;4866801;29;20198;-92
2022/04/19 08:02:04;;;;;;;2.70;2.47;;;;;;;12.81;45.32;95955.78;4900620;29;20195;-93
2022/04/19 08:04:31;;;;;;;2.37;2.17;;;;;;;18.07;45.30;96859.88;4899339;29;20178;-93
2022/04/19 08:07:01;;;;;;;3.20;2.43;;;;;;;16.09;45.18;96490.13;4890142;29;20199;-95
2022/04/19 08:09:27;;;;;;;2.73;2.53;;;;;;;14.28;45.03;96184.25;4901055;29;20183;-93
2022/04/19 08:11:54;;;;;;;4.73;2.40;;;;;;;14.98;45.04;96301.38;4856257;29;20183;-94
2022/04/19 08:14:20;;;;;;;2.63;2.40;;;;;;;17.17;45.20;96718.78;4872600;29;20190;-93
2022/04/19 08:16:47;;;;;;;2.40;2.20;;;;;;;13.65;45.30;96093.50;4890026;29;20185;-94
2022/04/19 08:19:14;;;;;;;2.40;2.20;;;;;;;16.33;45.44;96532.38;4885403;29;20197;-94
2022/04/19 08:21:40;;;;;;;2.47;2.27;;;;;;;14.37;45.21;96189.63;4871516;29;20208;-93
2022/04/19 08:24:07;;;;;;;2.57;2.37;;;;;;;16.44;45.34;96545.47;4886647;29;20187;-93
2022/04/19 08:26:35;;;;;;;2.73;2.40;;;;;;;15.35;45.24;96350.78;4871002;29;20179;-92
2022/04/19 08:29:01;;;;;;;2.37;2.17;;;;;;;17.11;45.26;96714.31;4898801;29;20206;-94
2022/04/19 08:31:28;;;;;;;3.03;2.60;;;;;;;18.26;45.05;96896.06;4889126;29;20190;-93
2022/04/19 08:33:55;;;;;;;3.50;2.30;;;;;;;15.73;45.47;96421.34;4875282;29;20203;-94
2022/04/19 08:36:21;;;;;;;2.63;2.40;;;;;;;16.20;45.77;96559.81;4884953;29;20194;-93
2022/04/19 08:38:48;;;;;;;2.77;2.40;;;;;;;16.02;45.15;96455.28;4884988;29;20203;-94
2022/04/19 08:41:17;;;;;;;2.97;2.37;;;;;;;17.22;45.26;96695.25;4880091;29;20202;-93
2022/04/19 08:43:45;;;;;;;2.40;2.20;;;;;;;14.95;45.23;96288.63;4870258;29;20211;-94
2022/04/19 08:46:12;;;;;;;2.60;2.40;;;;;;;15.27;45.30;96349.66;4876404;29;20179;-94
2022/04/19 08:48:40;;;;;;;3.20;2.60;;;;;;;15.14;45.28;96341.56;4872557;29;20198;-93
2022/04/19 08:51:10;;;;;;;2.53;2.33;;;;;;;18.15;45.27;96862.66;4860797;29;20211;-94
2022/04/19 08:59:08;;;;;;;2.40;2.20;;;;;;;18.01;45.27;96810.50;4874765;29;20203;-94
2022/04/19 09:01:35;;;;;;;2.30;2.10;;;;;;;16.90;45.31;96609.56;4879813;29;20187;-95
2022/04/19 09:04:04;;;;;;;3.43;2.20;;;;;;;17.94;45.39;96786.56;4849790;29;20183;-93
2022/04/19 09:06:56;;;;;;;2.30;2.10;;;;;;;19.11;45.30;96987.00;4887718;29;20226;-94
2022/04/19 09:09:27;;;;;;;2.10;1.90;;;;;;;18.39;45.21;96886.34;4903556;29;20243;-94
2022/04/19 09:11:55;;;;;;;2.80;2.27;;;;;;;14.22;45.18;96154.56;4888316;29;20209;-93
2022/04/19 09:14:23;;;;;;;1.97;1.87;;;;;;;14.23;45.46;96151.25;4873159;29;20186;-93
2022/04/19 09:17:10;;;;;;;2.50;2.30;;;;;;;15.48;45.18;96377.41;4872495;29;20183;-94
2022/04/19 09:19:38;;;;;;;2.20;2.00;;;;;;;17.02;45.29;96626.88;4889372;29;20218;-94
2022/04/19 09:22:05;;;;;;;2.30;2.10;;;;;;;19.10;45.25;96975.94;4903359;29;20187;-94
2022/04/19 09:24:33;;;;;;;2.37;2.17;;;;;;;16.38;44.88;96547.75;4887919;29;20262;-94
2022/04/19 09:26:59;;;;;;;2.20;2.00;;;;;;;13.36;45.41;96001.59;4887985;29;20213;-94
2022/04/19 09:29:27;;;;;;;2.47;2.27;;;;;;;17.50;45.46;96718.19;4892567;29;20250;-94
2022/04/19 09:32:01;;;;;;;2.53;2.20;;;;;;;15.05;45.38;96326.06;4884852;29;20185;-94
2022/04/19 09:34:36;;;;;;;2.33;2.13;;;;;;;15.48;45.42;96375.72;4870007;29;20202;-93
2022/04/19 09:37:07;;;;;;;2.30;2.10;;;;;;;14.62;45.20;96273.09;4856250;29;20198;-93
2022/04/19 09:39:37;;;;;;;2.50;2.30;;;;;;;14.77;45.41;96267.75;4896129;29;20209;-94
2022/04/19 09:42:07;;;;;;;2.00;1.90;;;;;;;13.88;44.97;96120.41;4892390;29;20202;-93
2022/04/19 09:44:38;;;;;;;2.33;2.13;;;;;;;17.92;45.66;96756.81;4878487;29;20184;-92
2022/04/19 09:47:09;;;;;;;3.07;2.30;;;;;;;16.02;45.44;96437.53;4873604;29;20202;-93
2022/04/19 09:49:45;;;;;;;2.00;1.90;;;;;;;16.73;45.21;96614.91;4857844;29;20194;-93
2022/04/19 09:52:13;;;;;;;2.17;2.00;;;;;;;16.32;45.24;96499.38;4888423;29;20271;-94
2022/04/19 09:54:44;;;;;;;2.00;1.90;;;;;;;16.77;45.22;96550.75;4890610;29;20222;-94
2022/04/19 09:57:11;;;;;;;2.27;2.07;;;;;;;17.77;45.50;96769.06;4891800;29;20212;-94
2022/04/19 09:59:44;;;;;;;2.20;2.10;;;;;;;15.40;45.75;96330.72;4876020;29;20202;-93
2022/04/19 10:10:29;;;;;;;2.30;1.90;;;;;;;15.33;45.34;96308.50;4908644;29;20198;-93
2022/04/19 10:13:03;;;;;;;2.10;2.00;;;;;;;18.04;45.58;96753.00;4881652;29;20182;-93
2022/04/19 10:15:33;;;;;;;1.93;1.83;;;;;;;15.38;45.12;96319.69;4891131;29;20183;-94
2022/04/19 10:18:00;;;;;;;2.50;2.10;;;;;;;18.06;45.47;96793.72;4891114;29;20186;-94
2022/04/19 10:20:31;;;;;;;2.07;1.93;;;;;;;18.03;45.37;96768.19;4876025;29;20223;-93
2022/04/19 10:23:08;;;;;;;1.90;1.80;;;;;;;16.95;45.59;96602.09;4878792;29;20183;-94
2022/04/19 10:25:46;;;;;;;2.30;2.10;;;;;;;13.31;45.34;95957.69;4882803;29;20191;-94
2022/04/19 10:28:15;;;;;;;2.10;1.97;;;;;;;16.86;45.16;96568.81;4890939;29;20198;-94
2022/04/19 10:30:52;;;;;;;2.00;1.90;;;;;;;13.46;45.22;95980.06;4890522;29;20209;-93
2022/04/19 10:33:39;;;;;;;2.03;1.83;;;;;;;19.12;45.48;96918.28;4876634;29;20250;-92
2022/04/19 10:36:13;;;;;;;2.20;2.00;;;;;;;18.32;45.51;96835.22;4916740;29;20183;-93
2022/04/19 10:38:40;;;;;;;2.40;2.20;;;;;;;18.29;45.53;96856.31;4857606;29;20187;-94
2022/04/19 10:41:07;;;;;;;2.20;2.00;;;;;;;16.43;45.43;96485.34;4889075;29;20389;-94
2022/04/19 10:43:34;;;;;;;2.17;2.07;;;;;;;18.07;45.67;96731.88;4890596;29;20207;-93
2022/04/19 10:46:20;;;;;;;2.30;2.10;;;;;;;15.29;45.53;96244.28;4869237;29;20219;-94
2022/04/19 10:49:24;;;;;;;2.07;1.80;;;;;;;19.11;45.58;96895.31;4872006;29;20207;-94
2022/04/19 10:51:52;;;;;;;1.97;1.80;;;;;;;16.73;45.61;96488.94;4886298;29;20187;-93
2022/04/19 10:54:57;;;;;;;2.23;2.03;;;;;;;19.09;45.55;96895.28;4862205;29;20190;-94
2022/04/19 11:00:29;;;;;;;2.00;1.90;;;;;;;15.46;45.45;96338.53;4876445;29;20238;-94
2022/04/19 11:03:17;;;;;;;2.50;2.30;;;;;;;16.02;45.82;96385.16;4865832;29;20186;-93
2022/04/19 11:05:52;;;;;;;1.80;1.70;;;;;;;15.45;45.66;96308.97;4905440;29;20190;-95
2022/04/19 11:08:24;;;;;;;1.90;1.80;;;;;;;19.11;45.56;96895.31;4887623;29;20218;-94
2022/04/19 11:10:57;;;;;;;2.10;1.90;;;;;;;19.12;45.28;96887.72;4902781;29;20207;-93
2022/04/19 11:13:27;;;;;;;1.73;1.63;;;;;;;19.11;45.59;96880.91;4902732;29;20203;-93
2022/04/19 11:16:09;;;;;;;2.20;2.00;;;;;;;19.11;45.44;96885.13;4870974;29;20224;-94
2022/04/19 11:18:42;;;;;;;2.10;2.00;;;;;;;19.11;45.71;96886.00;4871770;29;20183;-93
2022/04/19 11:21:45;;;;;;;1.80;1.70;;;;;;;19.12;45.58;96884.31;4904403;29;20254;-92
2022/04/19 11:24:52;;;;;;;2.07;1.97;;;;;;;18.48;45.48;96771.28;4886376;29;20203;-94
2022/04/19 11:27:19;;;;;;;2.00;1.90;;;;;;;15.92;45.33;96324.00;4911947;29;20226;-94
2022/04/19 11:29:47;;;;;;;1.87;1.77;;;;;;;18.08;45.53;96709.03;4880490;29;20212;-92
2022/04/19 11:32:22;;;;;;;3.10;2.00;;;;;;;17.77;45.66;96672.50;4881534;29;20194;-94
2022/04/19 11:35:01;;;;;;;1.90;1.80;;;;;;;15.37;45.64;96279.97;4888010;29;20187;-94
2022/04/19 11:37:32;;;;;;;2.10;1.90;;;;;;;15.57;45.64;96315.28;4873110;29;20215;-93
2022/04/19 11:48:31;;;;;;;2.00;1.80;;;;;;;16.36;45.44;96380.38;4893073;29;20225;-91
2022/04/19 11:51:08;;;;;;;2.00;1.80;;;;;;;17.05;45.77;96536.44;4877834;29;20206;-94
2022/04/19 11:53:35;;;;;;;2.00;1.90;;;;;;;14.65;45.55;96087.00;4871214;29;20179;-94
2022/04/19 11:56:02;;;;;;;2.00;1.90;;;;;;;15.18;45.62;96212.69;4872973;29;20231;-92
2022/04/19 11:58:30;;;;;;;1.90;1.80;;;;;;;18.02;45.39;96670.72;4886207;29;20228;-91
2022/04/19 12:00:58;;;;;;;2.33;1.90;;;;;;;16.74;45.44;96431.44;4890026;29;20211;-93
2022/04/19 12:03:26;;;;;;;2.40;1.80;;;;;;;17.29;45.54;96554.97;4885641;29;20220;-91
2022/04/19 12:06:14;;;;;;;1.80;1.70;;;;;;;17.09;45.42;96500.22;4861590;29;20561;-92
2022/04/19 12:08:42;;;;;;;1.50;1.40;;;;;;;16.13;45.89;96388.91;4861138;29;20218;-94
2022/04/19 12:11:13;;;;;;;2.50;1.90;;;;;;;18.00;45.19;96648.63;4867598;29;20215;-92
2022/04/19 12:13:41;;;;;;;1.87;1.77;;;;;;;15.55;45.42;96261.22;4879932;29;20198;-93
2022/04/19 12:16:29;;;;;;;2.00;1.90;;;;;;;17.05;45.27;96477.25;4885313;29;20187;-94
2022/04/19 12:19:00;;;;;;;1.90;1.80;;;;;;;16.36;45.51;96399.78;4890731;29;20190;-93
2022/04/19 12:21:39;;;;;;;2.37;1.80;;;;;;;19.11;45.33;96835.06;4878356;29;20236;-93
2022/04/19 12:24:07;;;;;;;2.03;1.87;;;;;;;14.55;45.24;96058.84;4896591;29;20186;-92
2022/04/19 12:26:33;;;;;;;2.80;2.13;;;;;;;16.65;45.51;96404.13;4902074;29;20191;-92
2022/04/19 12:29:09;;;;;;;1.90;1.80;;;;;;;17.20;45.38;96490.38;4905543;29;20258;-93
2022/04/19 12:31:39;;;;;;;3.00;1.90;;;;;;;16.93;45.44;96444.72;4880586;29;20211;-92